createdAt,value
2018-03-14T00:00:45.936Z,90.35
2018-03-14T00:01:45.935Z,90.97
2018-03-14T00:02:45.971Z,90.68
2018-03-14T00:03:48.457Z,90.73
2018-03-14T00:04:45.941Z,90.66
2018-03-14T00:05:45.970Z,91.65
2018-03-14T00:06:45.946Z,91.01
2018-03-14T00:07:45.990Z,91.1
2018-03-14T00:08:46.014Z,91.14
2018-03-14T00:09:45.930Z,90.97
2018-03-14T00:10:45.948Z,91.25
2018-03-14T00:11:48.794Z,90.57
2018-03-14T00:12:45.954Z,90.38
2018-03-14T00:13:46.011Z,90.63
2018-03-14T00:14:46.581Z,90.64
2018-03-14T00:15:46.013Z,90.47
2018-03-14T00:16:45.986Z,89.98
2018-03-14T00:17:46.015Z,90.34
2018-03-14T00:18:45.995Z,90.76
2018-03-14T00:19:45.995Z,90.33
2018-03-14T00:20:45.987Z,90.67
2018-03-14T00:21:46.002Z,90.35
2018-03-14T00:22:46.018Z,90.66
2018-03-14T00:23:46.072Z,90.93
2018-03-14T00:24:45.985Z,90.65
2018-03-14T00:25:46.084Z,90.26
2018-03-14T00:26:46.523Z,90.27
2018-03-14T00:27:46.013Z,90.12
2018-03-14T00:28:46.605Z,90.31
2018-03-14T00:29:46.017Z,90.79
2018-03-14T00:30:46.060Z,91.01
2018-03-14T00:31:46.012Z,91.04
2018-03-14T00:32:46.025Z,89.81
2018-03-14T00:33:46.019Z,90.61
2018-03-14T00:34:47.737Z,90.48
2018-03-14T00:35:46.089Z,90.47
2018-03-14T00:36:46.108Z,90.38
2018-03-14T00:37:46.023Z,89.87
2018-03-14T00:38:46.069Z,89.87
2018-03-14T00:39:46.490Z,90.35
2018-03-14T00:40:46.088Z,90.09
2018-03-14T00:41:46.066Z,90.35
2018-03-14T00:42:47.876Z,90.54
2018-03-14T00:43:46.094Z,90.28
2018-03-14T00:44:47.282Z,90.53
2018-03-14T00:45:46.083Z,90.63
2018-03-14T00:46:46.110Z,90.33
2018-03-14T00:47:46.093Z,90.9
2018-03-14T00:48:46.101Z,91.04
2018-03-14T00:49:46.096Z,91.13
2018-03-14T00:50:48.811Z,91
2018-03-14T00:51:46.101Z,90.53
2018-03-14T00:52:46.077Z,91.2
2018-03-14T00:53:46.100Z,91.19
2018-03-14T00:54:46.085Z,91.05
2018-03-14T00:55:46.154Z,91.02
2018-03-14T00:56:46.102Z,90.84
2018-03-14T00:57:46.212Z,90.28
2018-03-14T00:58:48.854Z,89.94
2018-03-14T00:59:46.102Z,89.94
2018-03-14T01:00:46.146Z,90.79
2018-03-14T01:01:46.093Z,91.06
2018-03-14T01:02:46.091Z,90.05
2018-03-14T01:03:46.078Z,90.43
2018-03-14T01:04:46.072Z,90.36
2018-03-14T01:05:46.812Z,90.13
2018-03-14T01:06:46.150Z,90.09
2018-03-14T01:07:46.093Z,90.17
2018-03-14T01:08:46.083Z,90.51
2018-03-14T01:09:46.143Z,90.89
2018-03-14T01:10:46.169Z,90.9
2018-03-14T01:11:46.191Z,90.81
2018-03-14T01:12:46.186Z,90.68
2018-03-14T01:13:48.193Z,90.6
2018-03-14T01:14:46.257Z,90.98
2018-03-14T01:15:46.189Z,90.99
2018-03-14T01:16:46.190Z,90.85
2018-03-14T01:17:46.205Z,90.66
2018-03-14T01:18:46.169Z,90.41
2018-03-14T01:19:46.217Z,90.28
2018-03-14T01:20:46.215Z,90.86
2018-03-14T01:21:47.618Z,90.67
2018-03-14T01:22:46.160Z,90.32
2018-03-14T01:23:46.180Z,90.92
2018-03-14T01:24:46.211Z,90.97
2018-03-14T01:25:46.247Z,91.26
2018-03-14T01:26:46.191Z,90.91
2018-03-14T01:27:46.218Z,91.41
2018-03-14T01:28:46.251Z,91.48
2018-03-14T01:29:48.856Z,90.85
2018-03-14T01:30:46.201Z,90.73
2018-03-14T01:31:46.225Z,91.27
2018-03-14T01:32:46.215Z,91.39
2018-03-14T01:33:46.254Z,91.45
2018-03-14T01:34:46.214Z,91.2
2018-03-14T01:35:46.295Z,91.54
2018-03-14T01:36:46.447Z,91.88
2018-03-14T01:37:46.240Z,91.74
2018-03-14T01:38:46.236Z,91.88
2018-03-14T01:39:46.299Z,92.29
2018-03-14T01:40:46.256Z,92.11
2018-03-14T01:41:46.280Z,92.29
2018-03-14T01:42:46.260Z,92.03
2018-03-14T01:43:46.282Z,91.92
2018-03-14T01:44:47.377Z,91.76
2018-03-14T01:45:46.304Z,91.77
2018-03-14T01:46:46.255Z,91.99
2018-03-14T01:47:46.286Z,92.07
2018-03-14T01:48:46.312Z,92.2
2018-03-14T01:49:46.296Z,91.6
2018-03-14T01:50:46.331Z,91.48
2018-03-14T01:51:46.270Z,91.42
2018-03-14T01:52:47.861Z,91.52
2018-03-14T01:53:46.312Z,91.21
2018-03-14T01:54:46.265Z,91.15
2018-03-14T01:55:46.915Z,90.93
2018-03-14T01:56:46.278Z,91.75
2018-03-14T01:57:47.223Z,91.33
2018-03-14T01:58:46.262Z,91.41
2018-03-14T01:59:46.287Z,91.07
2018-03-14T02:00:46.388Z,90.95
2018-03-14T02:01:46.259Z,91.25
2018-03-14T02:02:46.277Z,91.06
2018-03-14T02:03:46.302Z,90.79
2018-03-14T02:04:46.307Z,91.24
2018-03-14T02:05:46.280Z,90.93
2018-03-14T02:06:46.288Z,90.69
2018-03-14T02:07:46.966Z,90.7
2018-03-14T02:08:46.299Z,90.59
2018-03-14T02:09:46.337Z,90.75
2018-03-14T02:10:46.293Z,90.82
2018-03-14T02:11:46.342Z,91.28
2018-03-14T02:12:46.307Z,91.47
2018-03-14T02:13:46.312Z,91.39
2018-03-14T02:14:46.361Z,91.71
2018-03-14T02:15:48.270Z,91.2
2018-03-14T02:16:46.305Z,91.11
2018-03-14T02:17:46.332Z,91.37
2018-03-14T02:18:46.353Z,90.89
2018-03-14T02:19:46.332Z,90.96
2018-03-14T02:20:46.350Z,90.86
2018-03-14T02:21:46.439Z,90.78
2018-03-14T02:22:46.368Z,90.46
2018-03-14T02:23:48.942Z,90.68
2018-03-14T02:24:46.335Z,90.93
2018-03-14T02:25:46.549Z,90.9
2018-03-14T02:26:46.384Z,91.07
2018-03-14T02:27:46.344Z,90.96
2018-03-14T02:28:46.344Z,90.78
2018-03-14T02:29:46.372Z,90.74
2018-03-14T02:30:46.813Z,90.69
2018-03-14T02:31:46.348Z,90.64
2018-03-14T02:32:46.360Z,90.62
2018-03-14T02:33:46.356Z,90.45
2018-03-14T02:34:46.373Z,90.48
2018-03-14T02:35:46.451Z,90.57
2018-03-14T02:36:46.394Z,90.96
2018-03-14T02:37:46.379Z,90.63
2018-03-14T02:38:48.514Z,91.37
2018-03-14T02:39:46.408Z,91.02
2018-03-14T02:40:46.420Z,91.38
2018-03-14T02:41:46.388Z,90.87
2018-03-14T02:42:46.387Z,91.18
2018-03-14T02:43:46.388Z,91.09
2018-03-14T02:44:46.345Z,91.23
2018-03-14T02:45:46.340Z,91.07
2018-03-14T02:46:46.534Z,90.98
2018-03-14T02:47:46.361Z,91.16
2018-03-14T02:48:46.366Z,90.88
2018-03-14T02:49:46.370Z,90.75
2018-03-14T02:50:46.370Z,91.02
2018-03-14T02:51:46.401Z,91.57
2018-03-14T02:52:46.395Z,91.74
2018-03-14T02:53:46.396Z,91.79
2018-03-14T02:54:46.389Z,91.78
2018-03-14T02:55:46.396Z,91.88
2018-03-14T02:56:46.409Z,91.25
2018-03-14T02:57:46.412Z,91.22
2018-03-14T02:58:46.424Z,91.31
2018-03-14T02:59:46.407Z,91.25
2018-03-14T03:00:46.423Z,91.33
2018-03-14T03:01:46.430Z,91.14
2018-03-14T03:02:46.418Z,90.93
2018-03-14T03:03:46.448Z,90.86
2018-03-14T03:04:46.424Z,90.79
2018-03-14T03:05:46.427Z,90.7
2018-03-14T03:06:46.439Z,90.71
2018-03-14T03:07:46.434Z,90.84
2018-03-14T03:08:46.460Z,90.72
2018-03-14T03:09:46.439Z,90.89
2018-03-14T03:10:46.456Z,90.86
2018-03-14T03:11:46.429Z,90.83
2018-03-14T03:12:46.558Z,90.89
2018-03-14T03:13:46.469Z,90.72
2018-03-14T03:14:46.450Z,90.65
2018-03-14T03:15:46.448Z,90.6
2018-03-14T03:16:46.452Z,90.53
2018-03-14T03:17:46.453Z,90.85
2018-03-14T03:18:46.472Z,91
2018-03-14T03:19:46.473Z,90.85
2018-03-14T03:20:46.478Z,91.01
2018-03-14T03:21:46.481Z,91.08
2018-03-14T03:22:46.477Z,90.8
2018-03-14T03:23:46.526Z,90.8
2018-03-14T03:24:46.472Z,90.82
2018-03-14T03:25:46.495Z,90.97
2018-03-14T03:26:46.499Z,90.89
2018-03-14T03:27:46.518Z,90.71
2018-03-14T03:28:46.543Z,90.77
2018-03-14T03:29:46.504Z,90.98
2018-03-14T03:30:46.529Z,90.98
2018-03-14T03:31:46.523Z,91
2018-03-14T03:32:46.528Z,91.15
2018-03-14T03:33:46.512Z,90.99
2018-03-14T03:34:46.522Z,90.66
2018-03-14T03:35:46.527Z,90.47
2018-03-14T03:36:46.527Z,90.7
2018-03-14T03:37:46.525Z,90.64
2018-03-14T03:38:46.788Z,90.91
2018-03-14T03:39:46.526Z,90.91
2018-03-14T03:40:46.534Z,90.97
2018-03-14T03:41:46.549Z,91.04
2018-03-14T03:42:46.549Z,91.07
2018-03-14T03:43:46.571Z,90.57
2018-03-14T03:44:46.553Z,90.35
2018-03-14T03:45:46.558Z,90.51
2018-03-14T03:46:46.570Z,90.5
2018-03-14T03:47:46.553Z,90.44
2018-03-14T03:48:46.560Z,90.37
2018-03-14T03:49:46.571Z,90.62
2018-03-14T03:50:46.570Z,90.7
2018-03-14T03:51:46.600Z,90.55
2018-03-14T03:52:46.578Z,90
2018-03-14T03:53:46.582Z,89.49
2018-03-14T03:54:46.588Z,89.41
2018-03-14T03:55:46.595Z,89.45
2018-03-14T03:56:46.605Z,89.84
2018-03-14T03:57:46.609Z,89.97
2018-03-14T03:58:46.616Z,89.37
2018-03-14T03:59:46.605Z,89.06
2018-03-14T04:00:46.615Z,89.47
2018-03-14T04:01:46.623Z,89.56
2018-03-14T04:02:46.620Z,89.92
2018-03-14T04:03:46.690Z,90
2018-03-14T04:04:46.675Z,90.13
2018-03-14T04:05:46.627Z,89.62
2018-03-14T04:06:46.639Z,89.64
2018-03-14T04:07:46.658Z,89.1
2018-03-14T04:08:46.640Z,89.61
2018-03-14T04:09:46.643Z,89.86
2018-03-14T04:10:46.637Z,89.45
2018-03-14T04:11:46.928Z,89.25
2018-03-14T04:12:46.649Z,88.92
2018-03-14T04:13:46.703Z,89.63
2018-03-14T04:14:46.658Z,90.01
2018-03-14T04:15:46.669Z,89.79
2018-03-14T04:16:46.721Z,89.76
2018-03-14T04:17:46.665Z,89.56
2018-03-14T04:18:46.676Z,89.44
2018-03-14T04:19:46.670Z,89.48
2018-03-14T04:20:46.684Z,89.91
2018-03-14T04:21:46.681Z,90.26
2018-03-14T04:22:46.687Z,89.76
2018-03-14T04:23:46.709Z,89.44
2018-03-14T04:24:46.721Z,89.56
2018-03-14T04:25:46.693Z,90.13
2018-03-14T04:26:46.703Z,90.46
2018-03-14T04:27:46.687Z,88.41
2018-03-14T04:28:46.707Z,89.03
2018-03-14T04:29:46.685Z,87.95
2018-03-14T04:30:46.739Z,88.2
2018-03-14T04:31:46.698Z,88.38
2018-03-14T04:32:46.703Z,88.67
2018-03-14T04:33:46.698Z,88.14
2018-03-14T04:34:46.699Z,88.51
2018-03-14T04:35:46.703Z,88.55
2018-03-14T04:36:46.707Z,87.96
2018-03-14T04:37:46.719Z,87.89
2018-03-14T04:38:46.724Z,88.39
2018-03-14T04:39:46.722Z,88.71
2018-03-14T04:40:46.717Z,88.7
2018-03-14T04:41:46.732Z,88.85
2018-03-14T04:42:46.735Z,89.08
2018-03-14T04:43:46.728Z,89.02
2018-03-14T04:44:46.739Z,89.25
2018-03-14T04:45:46.735Z,89.27
2018-03-14T04:46:46.973Z,89.33
2018-03-14T04:47:46.762Z,89.52
2018-03-14T04:48:46.757Z,89.39
2018-03-14T04:49:46.766Z,89.58
2018-03-14T04:50:46.774Z,89.38
2018-03-14T04:51:46.791Z,89.24
2018-03-14T04:52:46.779Z,89.2
2018-03-14T04:53:46.808Z,89.16
2018-03-14T04:54:46.782Z,89.13
2018-03-14T04:55:46.767Z,89.19
2018-03-14T04:56:46.780Z,89.34
2018-03-14T04:57:46.795Z,89.24
2018-03-14T04:58:46.795Z,89.14
2018-03-14T04:59:46.788Z,89.14
2018-03-14T05:00:46.800Z,89.41
2018-03-14T05:01:46.797Z,89.11
2018-03-14T05:02:46.818Z,89.21
2018-03-14T05:03:46.822Z,89.49
2018-03-14T05:04:46.795Z,89.54
2018-03-14T05:05:46.785Z,89.54
2018-03-14T05:06:46.801Z,89.45
2018-03-14T05:07:46.810Z,89.43
2018-03-14T05:08:46.794Z,89.25
2018-03-14T05:09:46.801Z,89.39
2018-03-14T05:10:46.800Z,89.31
2018-03-14T05:11:46.806Z,89.21
2018-03-14T05:12:46.810Z,89.43
2018-03-14T05:13:46.793Z,89.51
2018-03-14T05:14:46.803Z,89.39
2018-03-14T05:15:46.825Z,89.48
2018-03-14T05:16:46.822Z,89.46
2018-03-14T05:17:46.818Z,89.34
2018-03-14T05:18:46.836Z,89.53
2018-03-14T05:19:46.861Z,89.68
2018-03-14T05:20:46.848Z,89.76
2018-03-14T05:21:46.861Z,89.75
2018-03-14T05:22:46.841Z,89.61
2018-03-14T05:23:46.845Z,89.87
2018-03-14T05:24:46.838Z,89.54
2018-03-14T05:25:46.842Z,89.49
2018-03-14T05:26:46.992Z,89.45
2018-03-14T05:27:46.844Z,89.45
2018-03-14T05:28:46.867Z,89.51
2018-03-14T05:29:46.858Z,89.52
2018-03-14T05:30:46.877Z,89.81
2018-03-14T05:31:46.889Z,89.84
2018-03-14T05:32:46.856Z,89.62
2018-03-14T05:33:46.866Z,89.9
2018-03-14T05:34:47.025Z,89.82
2018-03-14T05:35:46.873Z,89.55
2018-03-14T05:36:46.875Z,89.64
2018-03-14T05:37:46.888Z,89.86
2018-03-14T05:38:46.900Z,89.81
2018-03-14T05:39:46.908Z,89.83
2018-03-14T05:40:46.882Z,89.72
2018-03-14T05:41:46.888Z,89.7
2018-03-14T05:42:46.894Z,89.66
2018-03-14T05:43:46.897Z,89.79
2018-03-14T05:44:46.909Z,89.89
2018-03-14T05:45:46.917Z,89.68
2018-03-14T05:46:46.922Z,90.02
2018-03-14T05:47:47.090Z,90.16
2018-03-14T05:48:46.933Z,90.49
2018-03-14T05:49:46.934Z,90.08
2018-03-14T05:50:46.941Z,90.16
2018-03-14T05:51:46.942Z,90.26
2018-03-14T05:52:46.952Z,90.26
2018-03-14T05:53:47.074Z,90.44
2018-03-14T05:54:46.953Z,90.39
2018-03-14T05:55:46.952Z,90.15
2018-03-14T05:56:46.967Z,90.52
2018-03-14T05:57:46.963Z,90.91
2018-03-14T05:58:46.954Z,90.41
2018-03-14T05:59:46.969Z,90.58
2018-03-14T06:00:46.976Z,90.74
2018-03-14T06:01:46.965Z,90.27
2018-03-14T06:02:46.984Z,90.31
2018-03-14T06:03:46.982Z,90.9
2018-03-14T06:04:47.009Z,90.88
2018-03-14T06:05:46.989Z,90.54
2018-03-14T06:06:46.969Z,90.57
2018-03-14T06:07:47.002Z,90.7
2018-03-14T06:08:46.995Z,90.7
2018-03-14T06:09:47.003Z,90.84
2018-03-14T06:10:47.003Z,90.72
2018-03-14T06:11:47.011Z,91.06
2018-03-14T06:12:47.006Z,90.86
2018-03-14T06:13:47.013Z,90.81
2018-03-14T06:14:47.088Z,90.81
2018-03-14T06:15:47.022Z,91.02
2018-03-14T06:16:47.057Z,90.97
2018-03-14T06:17:47.037Z,90.88
2018-03-14T06:18:47.057Z,90.77
2018-03-14T06:19:47.074Z,90.8
2018-03-14T06:20:47.037Z,90.68
2018-03-14T06:21:47.043Z,90.89
2018-03-14T06:22:47.046Z,91.26
2018-03-14T06:23:47.059Z,90.96
2018-03-14T06:24:47.090Z,91.11
2018-03-14T06:25:47.053Z,90.75
2018-03-14T06:26:47.082Z,90.73
2018-03-14T06:27:47.087Z,91.03
2018-03-14T06:28:47.085Z,90.99
2018-03-14T06:29:47.196Z,90.76
2018-03-14T06:30:47.118Z,90.78
2018-03-14T06:31:47.078Z,90.91
2018-03-14T06:32:47.085Z,90.64
2018-03-14T06:33:47.107Z,90.66
2018-03-14T06:34:47.104Z,90.63
2018-03-14T06:35:47.138Z,90.71
2018-03-14T06:36:47.108Z,90.63
2018-03-14T06:37:47.125Z,90.93
2018-03-14T06:38:47.153Z,90.86
2018-03-14T06:39:47.132Z,90.77
2018-03-14T06:40:47.142Z,91.11
2018-03-14T06:41:47.114Z,91.05
2018-03-14T06:42:47.137Z,90.95
2018-03-14T06:43:47.124Z,90.92
2018-03-14T06:44:47.123Z,91.36
2018-03-14T06:45:47.153Z,91.34
2018-03-14T06:46:47.153Z,91.11
2018-03-14T06:47:47.148Z,90.92
2018-03-14T06:48:47.184Z,90.62
2018-03-14T06:49:47.150Z,90.95
2018-03-14T06:50:47.153Z,90.91
2018-03-14T06:51:47.149Z,90.62
2018-03-14T06:52:47.164Z,90.66
2018-03-14T06:53:47.195Z,90.14
2018-03-14T06:54:47.177Z,90.13
2018-03-14T06:55:47.168Z,90.44
2018-03-14T06:56:47.181Z,90.56
2018-03-14T06:57:47.246Z,90.99
2018-03-14T06:58:47.189Z,91.19
2018-03-14T06:59:47.179Z,91.36
2018-03-14T07:00:47.180Z,90.55
2018-03-14T07:01:47.181Z,90.6
2018-03-14T07:02:47.189Z,91.12
2018-03-14T07:03:47.208Z,91.2
2018-03-14T07:04:47.201Z,91.17
2018-03-14T07:05:47.296Z,91.54
2018-03-14T07:06:47.215Z,91.57
2018-03-14T07:07:47.209Z,91.85
2018-03-14T07:08:47.220Z,91.26
2018-03-14T07:09:47.211Z,91.11
2018-03-14T07:10:47.224Z,91.35
2018-03-14T07:11:47.272Z,91.34
2018-03-14T07:12:47.219Z,91.27
2018-03-14T07:13:47.248Z,91.17
2018-03-14T07:14:47.244Z,90.93
2018-03-14T07:15:47.237Z,91.1
2018-03-14T07:16:47.259Z,90.98
2018-03-14T07:17:47.237Z,91.04
2018-03-14T07:18:47.245Z,90.95
2018-03-14T07:19:47.265Z,90.98
2018-03-14T07:20:47.242Z,91.16
2018-03-14T07:21:47.240Z,91.05
2018-03-14T07:22:47.274Z,91.1
2018-03-14T07:23:47.260Z,91.36
2018-03-14T07:24:47.290Z,91.01
2018-03-14T07:25:47.270Z,91.31
2018-03-14T07:26:47.281Z,90.92
2018-03-14T07:27:47.299Z,90.83
2018-03-14T07:28:47.282Z,90.57
2018-03-14T07:29:47.283Z,90.37
2018-03-14T07:30:47.289Z,90.5
2018-03-14T07:31:47.325Z,90.66
2018-03-14T07:32:47.326Z,90
2018-03-14T07:33:47.331Z,90.03
2018-03-14T07:34:47.306Z,89.87
2018-03-14T07:35:47.311Z,89.97
2018-03-14T07:36:47.312Z,90.39
2018-03-14T07:37:47.378Z,90.2
2018-03-14T07:38:47.323Z,90.67
2018-03-14T07:39:47.323Z,90.54
2018-03-14T07:40:47.321Z,90.49
2018-03-14T07:41:47.317Z,90.45
2018-03-14T07:42:47.346Z,90.33
2018-03-14T07:43:47.327Z,90.14
2018-03-14T07:44:47.322Z,90.17
2018-03-14T07:45:47.326Z,90.39
2018-03-14T07:46:47.324Z,90.55
2018-03-14T07:47:47.374Z,89.94
2018-03-14T07:48:47.367Z,89.84
2018-03-14T07:49:47.347Z,89.87
2018-03-14T07:50:47.353Z,89.96
2018-03-14T07:51:47.350Z,89.84
2018-03-14T07:52:47.360Z,89.74
2018-03-14T07:53:47.367Z,89.36
2018-03-14T07:54:47.357Z,89.57
2018-03-14T07:55:47.360Z,89.25
2018-03-14T07:56:47.373Z,89
2018-03-14T07:57:47.379Z,88.92
2018-03-14T07:58:47.396Z,88.67
2018-03-14T07:59:47.379Z,88.88
2018-03-14T08:00:47.383Z,88.48
2018-03-14T08:01:47.382Z,88.87
2018-03-14T08:02:47.407Z,89.33
2018-03-14T08:03:47.414Z,89.67
2018-03-14T08:04:47.393Z,89.78
2018-03-14T08:05:47.514Z,89.71
2018-03-14T08:06:47.495Z,89.83
2018-03-14T08:07:47.396Z,89.72
2018-03-14T08:08:47.447Z,88.26
2018-03-14T08:09:47.402Z,88.5
2018-03-14T08:10:47.413Z,88.9
2018-03-14T08:11:47.410Z,88.91
2018-03-14T08:12:47.441Z,89.25
2018-03-14T08:13:48.463Z,89.28
2018-03-14T08:14:47.433Z,89.33
2018-03-14T08:15:47.434Z,89.25
2018-03-14T08:16:47.435Z,88.55
2018-03-14T08:17:47.428Z,88.4
2018-03-14T08:18:47.444Z,87.74
2018-03-14T08:19:47.437Z,87.69
2018-03-14T08:20:47.436Z,87.48
2018-03-14T08:21:47.511Z,87.19
2018-03-14T08:22:47.446Z,87.08
2018-03-14T08:23:47.455Z,86.82
2018-03-14T08:24:47.454Z,86.28
2018-03-14T08:25:47.452Z,85.8
2018-03-14T08:26:47.479Z,86.25
2018-03-14T08:27:47.619Z,86.23
2018-03-14T08:28:47.487Z,86.41
2018-03-14T08:29:47.459Z,86.5
2018-03-14T08:30:47.480Z,86.61
2018-03-14T08:31:47.462Z,86.83
2018-03-14T08:32:47.475Z,86.33
2018-03-14T08:33:47.482Z,85.72
2018-03-14T08:34:47.473Z,86.12
2018-03-14T08:35:47.467Z,85.76
2018-03-14T08:36:47.474Z,86.43
2018-03-14T08:37:47.491Z,86.31
2018-03-14T08:38:47.514Z,86.29
2018-03-14T08:39:47.494Z,85.31
2018-03-14T08:40:47.484Z,85.19
2018-03-14T08:41:47.496Z,85.6
2018-03-14T08:42:47.498Z,86.07
2018-03-14T08:43:47.519Z,85.88
2018-03-14T08:44:47.485Z,84.99
2018-03-14T08:45:47.510Z,85.1
2018-03-14T08:46:47.658Z,85.57
2018-03-14T08:47:47.512Z,84.95
2018-03-14T08:48:47.515Z,85.73
2018-03-14T08:49:47.538Z,85.38
2018-03-14T08:50:47.528Z,84.42
2018-03-14T08:51:47.530Z,84.21
2018-03-14T08:52:47.525Z,82.82
2018-03-14T08:53:47.530Z,84.19
2018-03-14T08:54:47.548Z,84.74
2018-03-14T08:55:47.852Z,83.88
2018-03-14T08:56:47.607Z,84.46
2018-03-14T08:57:47.544Z,84.21
2018-03-14T08:58:47.555Z,84.17
2018-03-14T08:59:47.550Z,84.02
2018-03-14T09:00:47.541Z,83.3
2018-03-14T09:01:47.558Z,82.95
2018-03-14T09:02:47.558Z,80.83
2018-03-14T09:03:47.600Z,80.91
2018-03-14T09:04:47.582Z,79.04
2018-03-14T09:05:47.565Z,81.13
2018-03-14T09:06:47.563Z,78.6
2018-03-14T09:07:47.594Z,77.95
2018-03-14T09:08:47.565Z,78.36
2018-03-14T09:09:47.591Z,77.06
2018-03-14T09:10:47.646Z,77.4
2018-03-14T09:11:47.607Z,76.81
2018-03-14T09:12:47.587Z,77.42
2018-03-14T09:13:47.606Z,76.87
2018-03-14T09:14:47.585Z,76.89
2018-03-14T09:15:47.584Z,77.72
2018-03-14T09:16:47.592Z,75.7
2018-03-14T09:17:47.594Z,76.31
2018-03-14T09:18:47.599Z,78
2018-03-14T09:19:47.621Z,77.89
2018-03-14T09:20:47.595Z,77.68
2018-03-14T09:21:47.595Z,77.4
2018-03-14T09:22:47.612Z,78.38
2018-03-14T09:23:47.609Z,78.64
2018-03-14T09:24:47.636Z,77.95
2018-03-14T09:25:47.622Z,78.43
2018-03-14T09:26:47.626Z,76.86
2018-03-14T09:27:47.626Z,75.49
2018-03-14T09:28:47.643Z,75.16
2018-03-14T09:29:47.668Z,72.65
2018-03-14T09:30:47.642Z,73.79
2018-03-14T09:31:47.929Z,74.74
2018-03-14T09:32:47.669Z,75.23
2018-03-14T09:33:47.656Z,74.09
2018-03-14T09:34:47.668Z,72.2
2018-03-14T09:35:47.660Z,71.76
2018-03-14T09:36:47.677Z,71.41
2018-03-14T09:37:47.724Z,69.56
2018-03-14T09:38:47.681Z,71.52
2018-03-14T09:39:47.956Z,72.34
2018-03-14T09:40:47.705Z,70.73
2018-03-14T09:41:47.716Z,72.98
2018-03-14T09:42:47.692Z,72.56
2018-03-14T09:43:47.695Z,71.65
2018-03-14T09:44:47.729Z,73.19
2018-03-14T09:45:47.707Z,72.98
2018-03-14T09:46:47.706Z,74.27
2018-03-14T09:47:47.704Z,74.8
2018-03-14T09:48:47.735Z,70.63
2018-03-14T09:49:47.740Z,69.93
2018-03-14T09:50:47.721Z,70.5
2018-03-14T09:51:47.791Z,72.74
2018-03-14T09:52:47.764Z,72.93
2018-03-14T09:53:47.740Z,73.51
2018-03-14T09:54:47.797Z,72.45
2018-03-14T09:55:47.742Z,70.74
2018-03-14T09:56:47.822Z,68.48
2018-03-14T09:57:47.855Z,70.27
2018-03-14T09:58:47.800Z,70.79
2018-03-14T09:59:47.810Z,71.65
2018-03-14T10:00:48.043Z,69.12
2018-03-14T10:01:47.752Z,68.49
2018-03-14T10:02:48.912Z,69.65
2018-03-14T10:03:47.758Z,69.85
2018-03-14T10:04:47.794Z,70.09
2018-03-14T10:05:47.818Z,69.36
2018-03-14T10:06:47.824Z,70.21
2018-03-14T10:07:47.820Z,70.64
2018-03-14T10:08:47.832Z,68.33
2018-03-14T10:09:47.834Z,68.74
2018-03-14T10:10:47.852Z,69.06
2018-03-14T10:11:47.825Z,69.21
2018-03-14T10:12:47.859Z,68.83
2018-03-14T10:13:47.826Z,69.25
2018-03-14T10:14:47.844Z,69.41
2018-03-14T10:15:47.852Z,68.29
2018-03-14T10:16:47.977Z,67.71
2018-03-14T10:17:47.853Z,68.38
2018-03-14T10:18:47.878Z,67.65
2018-03-14T10:19:47.894Z,66.86
2018-03-14T10:20:47.842Z,64.96
2018-03-14T10:21:48.042Z,65.77
2018-03-14T10:22:47.855Z,65.6
2018-03-14T10:23:48.876Z,65.68
2018-03-14T10:24:47.842Z,65.9
2018-03-14T10:25:48.596Z,66.69
2018-03-14T10:26:47.915Z,66.96
2018-03-14T10:27:47.898Z,68.3
2018-03-14T10:28:48.466Z,68.4
2018-03-14T10:29:47.882Z,69.18
2018-03-14T10:30:47.892Z,69.54
2018-03-14T10:31:47.894Z,67.8
2018-03-14T10:32:47.899Z,67.42
2018-03-14T10:33:47.888Z,67.99
2018-03-14T10:34:47.882Z,69.56
2018-03-14T10:35:47.914Z,67.23
2018-03-14T10:36:48.506Z,65.96
2018-03-14T10:37:47.935Z,65.53
2018-03-14T10:38:47.910Z,67.09
2018-03-14T10:39:47.893Z,67.46
2018-03-14T10:40:48.007Z,64.76
2018-03-14T10:41:47.925Z,64.29
2018-03-14T10:42:47.923Z,64.97
2018-03-14T10:43:47.936Z,64.29
2018-03-14T10:44:48.533Z,64.82
2018-03-14T10:45:47.922Z,64.23
2018-03-14T10:46:47.938Z,64.48
2018-03-14T10:47:47.954Z,64.34
2018-03-14T10:48:47.975Z,63.61
2018-03-14T10:49:47.956Z,65.44
2018-03-14T10:50:47.947Z,64.86
2018-03-14T10:51:47.948Z,65.18
2018-03-14T10:52:47.958Z,63.03
2018-03-14T10:53:47.953Z,65.16
2018-03-14T10:54:47.961Z,66.07
2018-03-14T10:55:47.942Z,65.74
2018-03-14T10:56:47.926Z,62.85
2018-03-14T10:57:47.944Z,62.92
2018-03-14T10:58:49.376Z,65.31
2018-03-14T10:59:47.978Z,64.33
2018-03-14T11:00:48.071Z,64.31
2018-03-14T11:01:47.962Z,64.86
2018-03-14T11:02:48.221Z,64.59
2018-03-14T11:03:48.096Z,64.3
2018-03-14T11:04:48.200Z,63.55
2018-03-14T11:05:47.981Z,64.81
2018-03-14T11:06:47.980Z,64.89
2018-03-14T11:07:48.399Z,61.96
2018-03-14T11:08:47.963Z,60.54
2018-03-14T11:09:47.986Z,60.98
2018-03-14T11:10:48.076Z,60.32
2018-03-14T11:11:47.964Z,61.9
2018-03-14T11:12:47.949Z,59.97
2018-03-14T11:13:47.956Z,61.46
2018-03-14T11:14:47.967Z,61.1
2018-03-14T11:15:47.973Z,60.88
2018-03-14T11:16:47.983Z,59.28
2018-03-14T11:17:47.983Z,59.36
2018-03-14T11:18:48.022Z,60.22
2018-03-14T11:19:47.996Z,62.12
2018-03-14T11:20:47.997Z,63.41
2018-03-14T11:21:47.994Z,63.54
2018-03-14T11:22:48.006Z,62.65
2018-03-14T11:23:48.005Z,63.57
2018-03-14T11:24:47.999Z,63.69
2018-03-14T11:25:48.033Z,63.64
2018-03-14T11:26:48.031Z,62.74
2018-03-14T11:27:48.122Z,63.76
2018-03-14T11:28:48.027Z,64.27
2018-03-14T11:29:48.032Z,63.63
2018-03-14T11:30:48.040Z,63.84
2018-03-14T11:31:48.042Z,64.18
2018-03-14T11:32:48.039Z,63.18
2018-03-14T11:33:48.085Z,63.4
2018-03-14T11:34:48.082Z,63.07
2018-03-14T11:35:48.088Z,63.39
2018-03-14T11:36:48.092Z,62.63
2018-03-14T11:37:48.084Z,62.77
2018-03-14T11:38:48.084Z,63.66
2018-03-14T11:39:48.118Z,64
2018-03-14T11:40:48.129Z,64.2
2018-03-14T11:41:48.086Z,62
2018-03-14T11:42:48.090Z,62.82
2018-03-14T11:43:48.106Z,64.08
2018-03-14T11:44:48.135Z,63.45
2018-03-14T11:45:48.123Z,62.99
2018-03-14T11:46:48.128Z,62.61
2018-03-14T11:47:48.123Z,62.68
2018-03-14T11:48:48.131Z,63
2018-03-14T11:49:48.132Z,62.02
2018-03-14T11:50:48.135Z,60.74
2018-03-14T11:51:48.141Z,61.57
2018-03-14T11:52:48.137Z,60.21
2018-03-14T11:53:48.132Z,59.81
2018-03-14T11:54:48.723Z,60.75
2018-03-14T11:55:48.145Z,61.69
2018-03-14T11:56:48.156Z,62.28
2018-03-14T11:57:48.167Z,60.7
2018-03-14T11:58:48.148Z,59.17
2018-03-14T11:59:48.149Z,57.49
2018-03-14T12:00:48.151Z,57.77
2018-03-14T12:01:49.137Z,57.08
2018-03-14T12:02:48.305Z,57.66
2018-03-14T12:03:48.181Z,57.69
2018-03-14T12:04:48.178Z,59.53
2018-03-14T12:05:48.186Z,59.77
2018-03-14T12:06:48.180Z,59.86
2018-03-14T12:07:48.194Z,60.51
2018-03-14T12:08:48.190Z,59.56
2018-03-14T12:09:48.199Z,59
2018-03-14T12:10:48.186Z,57.54
2018-03-14T12:11:52.543Z,57.3
2018-03-14T12:12:48.200Z,58.39
2018-03-14T12:13:48.194Z,57.49
2018-03-14T12:14:48.198Z,57.55
2018-03-14T12:15:48.231Z,59.39
2018-03-14T12:16:48.199Z,59.23
2018-03-14T12:17:48.208Z,59.63
2018-03-14T12:18:49.452Z,59.63
2018-03-14T12:19:48.602Z,58.55
2018-03-14T12:20:48.206Z,59.28
2018-03-14T12:21:48.211Z,58.79
2018-03-14T12:22:48.210Z,57.92
2018-03-14T12:23:49.424Z,58.51
2018-03-14T12:24:48.225Z,58.65
2018-03-14T12:25:48.210Z,59.11
2018-03-14T12:26:48.885Z,58.5
2018-03-14T12:27:49.935Z,58.51
2018-03-14T12:28:48.214Z,57.94
2018-03-14T12:29:48.216Z,58.48
2018-03-14T12:30:48.415Z,57.26
2018-03-14T12:31:49.473Z,57.73
2018-03-14T12:32:48.238Z,58.75
2018-03-14T12:33:48.254Z,59.59
2018-03-14T12:34:48.958Z,59.75
2018-03-14T12:35:48.242Z,57.73
2018-03-14T12:36:48.237Z,59.06
2018-03-14T12:37:48.243Z,58.46
2018-03-14T12:38:48.252Z,59.24
2018-03-14T12:39:51.236Z,59.7
2018-03-14T12:40:50.322Z,58.89
2018-03-14T12:41:49.203Z,58.95
2018-03-14T12:42:50.285Z,58.74
2018-03-14T12:43:50.318Z,59.03
2018-03-14T12:44:49.819Z,59.12
2018-03-14T12:45:50.259Z,58.5
2018-03-14T12:46:49.031Z,58.66
2018-03-14T12:47:48.743Z,58.82
2018-03-14T12:48:50.989Z,58.14
2018-03-14T12:49:51.689Z,58.18
2018-03-14T12:50:51.719Z,58.25
2018-03-14T12:51:49.519Z,57.47
2018-03-14T12:52:48.923Z,57.69
2018-03-14T12:53:52.600Z,58.61
2018-03-14T12:54:49.574Z,58.4
2018-03-14T12:55:49.999Z,57.9